sensor_id;sensor_type;location;lat;lon;timestamp;temperature;humidity
19232;DHT22;9750;48.730;10.294;2023-09-07T00:00:26;18.90;91.60
19232;DHT22;9750;48.730;10.294;2023-09-07T00:03:18;18.90;91.60
19232;DHT22;9750;48.730;10.294;2023-09-07T00:05:47;18.90;91.80
19232;DHT22;9750;48.730;10.294;2023-09-07T00:08:14;18.80;91.80
19232;DHT22;9750;48.730;10.294;2023-09-07T00:10:41;18.80;91.90
19232;DHT22;9750;48.730;10.294;2023-09-07T00:13:09;18.80;92.00
19232;DHT22;9750;48.730;10.294;2023-09-07T00:15:37;18.80;92.00
19232;DHT22;9750;48.730;10.294;2023-09-07T00:18:04;18.80;92.00
19232;DHT22;9750;48.730;10.294;2023-09-07T00:20:32;18.80;92.00
19232;DHT22;9750;48.730;10.294;2023-09-07T00:23:01;18.80;92.10
19232;DHT22;9750;48.730;10.294;2023-09-07T00:25:29;18.80;92.10
19232;DHT22;9750;48.730;10.294;2023-09-07T00:27:56;18.70;92.10
19232;DHT22;9750;48.730;10.294;2023-09-07T00:30:25;18.70;92.20
19232;DHT22;9750;48.730;10.294;2023-09-07T00:32:53;18.70;92.10
19232;DHT22;9750;48.730;10.294;2023-09-07T00:35:20;18.70;92.30
19232;DHT22;9750;48.730;10.294;2023-09-07T00:37:47;18.70;92.20
19232;DHT22;9750;48.730;10.294;2023-09-07T00:40:16;18.70;92.40
19232;DHT22;9750;48.730;10.294;2023-09-07T00:42:43;18.70;92.50
19232;DHT22;9750;48.730;10.294;2023-09-07T00:45:10;18.70;92.60
19232;DHT22;9750;48.730;10.294;2023-09-07T00:47:39;18.70;92.60
19232;DHT22;9750;48.730;10.294;2023-09-07T00:50:07;18.70;92.50
19232;DHT22;9750;48.730;10.294;2023-09-07T00:52:36;18.70;92.60
19232;DHT22;9750;48.730;10.294;2023-09-07T00:55:06;18.60;92.70
19232;DHT22;9750;48.730;10.294;2023-09-07T00:57:36;18.60;92.70
19232;DHT22;9750;48.730;10.294;2023-09-07T01:00:06;18.60;92.70
19232;DHT22;9750;48.730;10.294;2023-09-07T01:02:34;18.60;92.60
19232;DHT22;9750;48.730;10.294;2023-09-07T01:05:02;18.60;92.70
19232;DHT22;9750;48.730;10.294;2023-09-07T01:07:35;18.60;92.60
19232;DHT22;9750;48.730;10.294;2023-09-07T01:10:05;18.60;92.60
19232;DHT22;9750;48.730;10.294;2023-09-07T01:12:35;18.60;92.70
19232;DHT22;9750;48.730;10.294;2023-09-07T01:15:02;18.60;92.70
19232;DHT22;9750;48.730;10.294;2023-09-07T01:17:31;18.50;92.70
19232;DHT22;9750;48.730;10.294;2023-09-07T01:20:00;18.50;92.70
19232;DHT22;9750;48.730;10.294;2023-09-07T01:22:33;18.50;92.70
19232;DHT22;9750;48.730;10.294;2023-09-07T01:25:01;18.50;92.80
19232;DHT22;9750;48.730;10.294;2023-09-07T01:27:30;18.50;92.70
19232;DHT22;9750;48.730;10.294;2023-09-07T01:29:58;18.50;92.80
19232;DHT22;9750;48.730;10.294;2023-09-07T01:32:25;18.50;92.80
19232;DHT22;9750;48.730;10.294;2023-09-07T01:34:54;18.50;92.80
19232;DHT22;9750;48.730;10.294;2023-09-07T01:37:22;18.50;92.90
19232;DHT22;9750;48.730;10.294;2023-09-07T01:39:51;18.40;92.90
19232;DHT22;9750;48.730;10.294;2023-09-07T01:42:18;18.40;92.90
19232;DHT22;9750;48.730;10.294;2023-09-07T01:44:47;18.40;92.90
19232;DHT22;9750;48.730;10.294;2023-09-07T01:47:14;18.40;92.90
19232;DHT22;9750;48.730;10.294;2023-09-07T01:49:42;18.40;92.80
19232;DHT22;9750;48.730;10.294;2023-09-07T01:52:09;18.40;92.90
19232;DHT22;9750;48.730;10.294;2023-09-07T01:54:36;18.40;92.90
19232;DHT22;9750;48.730;10.294;2023-09-07T01:57:05;18.40;92.90
19232;DHT22;9750;48.730;10.294;2023-09-07T01:59:34;18.40;92.90
19232;DHT22;9750;48.730;10.294;2023-09-07T02:02:07;18.30;92.90
19232;DHT22;9750;48.730;10.294;2023-09-07T02:04:36;18.30;93.20
19232;DHT22;9750;48.730;10.294;2023-09-07T02:07:03;18.30;92.90
19232;DHT22;9750;48.730;10.294;2023-09-07T02:09:32;18.30;93.00
19232;DHT22;9750;48.730;10.294;2023-09-07T02:11:59;18.30;92.90
19232;DHT22;9750;48.730;10.294;2023-09-07T02:14:28;18.30;93.00
19232;DHT22;9750;48.730;10.294;2023-09-07T02:16:55;18.30;93.00
19232;DHT22;9750;48.730;10.294;2023-09-07T02:19:22;18.30;93.00
19232;DHT22;9750;48.730;10.294;2023-09-07T02:21:50;18.20;92.90
19232;DHT22;9750;48.730;10.294;2023-09-07T02:24:18;18.20;93.00
19232;DHT22;9750;48.730;10.294;2023-09-07T02:26:45;18.20;93.00
19232;DHT22;9750;48.730;10.294;2023-09-07T02:29:12;18.20;93.10
19232;DHT22;9750;48.730;10.294;2023-09-07T02:31:41;18.20;93.00
19232;DHT22;9750;48.730;10.294;2023-09-07T02:34:08;18.10;93.10
19232;DHT22;9750;48.730;10.294;2023-09-07T02:36:36;18.10;93.20
19232;DHT22;9750;48.730;10.294;2023-09-07T02:39:03;18.10;93.10
19232;DHT22;9750;48.730;10.294;2023-09-07T02:41:31;18.10;93.10
19232;DHT22;9750;48.730;10.294;2023-09-07T02:43:58;18.10;93.10
19232;DHT22;9750;48.730;10.294;2023-09-07T02:46:25;18.10;93.10
19232;DHT22;9750;48.730;10.294;2023-09-07T02:48:54;18.10;93.20
19232;DHT22;9750;48.730;10.294;2023-09-07T02:51:23;18.00;93.20
19232;DHT22;9750;48.730;10.294;2023-09-07T02:53:50;18.10;93.20
19232;DHT22;9750;48.730;10.294;2023-09-07T02:56:18;18.00;93.20
19232;DHT22;9750;48.730;10.294;2023-09-07T02:58:45;18.00;93.20
19232;DHT22;9750;48.730;10.294;2023-09-07T03:01:12;18.00;93.20
19232;DHT22;9750;48.730;10.294;2023-09-07T03:03:40;18.00;93.20
19232;DHT22;9750;48.730;10.294;2023-09-07T03:06:11;18.00;93.20
19232;DHT22;9750;48.730;10.294;2023-09-07T03:08:39;18.00;93.20
19232;DHT22;9750;48.730;10.294;2023-09-07T03:11:07;17.90;93.20
19232;DHT22;9750;48.730;10.294;2023-09-07T03:13:35;17.90;93.20
19232;DHT22;9750;48.730;10.294;2023-09-07T03:16:04;17.90;93.30
19232;DHT22;9750;48.730;10.294;2023-09-07T03:18:32;17.90;93.30
19232;DHT22;9750;48.730;10.294;2023-09-07T03:21:00;17.90;93.30
19232;DHT22;9750;48.730;10.294;2023-09-07T03:23:30;17.90;93.40
19232;DHT22;9750;48.730;10.294;2023-09-07T03:25:59;17.90;93.40
19232;DHT22;9750;48.730;10.294;2023-09-07T03:28:26;17.90;93.40
19232;DHT22;9750;48.730;10.294;2023-09-07T03:30:54;17.90;93.40
19232;DHT22;9750;48.730;10.294;2023-09-07T03:33:21;17.90;93.30
19232;DHT22;9750;48.730;10.294;2023-09-07T03:35:49;17.80;93.40
19232;DHT22;9750;48.730;10.294;2023-09-07T03:38:17;17.80;93.30
19232;DHT22;9750;48.730;10.294;2023-09-07T03:40:46;17.80;93.30
19232;DHT22;9750;48.730;10.294;2023-09-07T03:43:13;17.80;93.40
19232;DHT22;9750;48.730;10.294;2023-09-07T03:45:40;17.80;93.40
19232;DHT22;9750;48.730;10.294;2023-09-07T03:48:08;17.80;93.30
19232;DHT22;9750;48.730;10.294;2023-09-07T03:50:35;17.80;93.30
19232;DHT22;9750;48.730;10.294;2023-09-07T03:53:03;17.80;93.30
19232;DHT22;9750;48.730;10.294;2023-09-07T03:55:39;17.80;93.40
19232;DHT22;9750;48.730;10.294;2023-09-07T03:58:08;17.80;93.40
19232;DHT22;9750;48.730;10.294;2023-09-07T04:00:38;17.80;93.40
19232;DHT22;9750;48.730;10.294;2023-09-07T04:03:06;17.80;93.40
19232;DHT22;9750;48.730;10.294;2023-09-07T04:05:33;17.80;93.40
19232;DHT22;9750;48.730;10.294;2023-09-07T04:08:00;17.70;93.40
19232;DHT22;9750;48.730;10.294;2023-09-07T04:10:28;17.70;93.40
19232;DHT22;9750;48.730;10.294;2023-09-07T04:20:22;17.70;93.40
19232;DHT22;9750;48.730;10.294;2023-09-07T04:29:29;17.60;93.40
19232;DHT22;9750;48.730;10.294;2023-09-07T04:31:56;17.60;93.40
19232;DHT22;9750;48.730;10.294;2023-09-07T04:34:24;17.60;93.40
19232;DHT22;9750;48.730;10.294;2023-09-07T04:36:53;17.60;93.40
19232;DHT22;9750;48.730;10.294;2023-09-07T04:39:20;17.60;93.40
19232;DHT22;9750;48.730;10.294;2023-09-07T04:41:47;17.60;93.40
19232;DHT22;9750;48.730;10.294;2023-09-07T04:44:20;17.50;93.40
19232;DHT22;9750;48.730;10.294;2023-09-07T04:47:11;17.50;93.40
19232;DHT22;9750;48.730;10.294;2023-09-07T04:50:01;17.50;93.40
19232;DHT22;9750;48.730;10.294;2023-09-07T04:52:33;17.50;93.40
19232;DHT22;9750;48.730;10.294;2023-09-07T04:55:01;17.50;93.40
19232;DHT22;9750;48.730;10.294;2023-09-07T04:57:30;17.50;93.30
19232;DHT22;9750;48.730;10.294;2023-09-07T04:59:57;17.50;93.40
19232;DHT22;9750;48.730;10.294;2023-09-07T05:02:25;17.50;93.40
19232;DHT22;9750;48.730;10.294;2023-09-07T05:04:52;17.50;93.30
19232;DHT22;9750;48.730;10.294;2023-09-07T05:07:19;17.50;93.30
19232;DHT22;9750;48.730;10.294;2023-09-07T05:09:48;17.50;93.30
19232;DHT22;9750;48.730;10.294;2023-09-07T05:12:15;17.50;93.20
19232;DHT22;9750;48.730;10.294;2023-09-07T05:14:44;17.50;93.20
19232;DHT22;9750;48.730;10.294;2023-09-07T05:17:11;17.50;93.30
19232;DHT22;9750;48.730;10.294;2023-09-07T05:19:38;17.50;93.20
19232;DHT22;9750;48.730;10.294;2023-09-07T05:22:06;17.50;93.30
19232;DHT22;9750;48.730;10.294;2023-09-07T05:24:34;17.60;93.20
19232;DHT22;9750;48.730;10.294;2023-09-07T05:27:03;17.60;93.30
19232;DHT22;9750;48.730;10.294;2023-09-07T05:29:31;17.60;93.30
19232;DHT22;9750;48.730;10.294;2023-09-07T05:31:58;17.60;93.20
19232;DHT22;9750;48.730;10.294;2023-09-07T05:34:25;17.60;93.30
19232;DHT22;9750;48.730;10.294;2023-09-07T05:36:52;17.60;93.20
19232;DHT22;9750;48.730;10.294;2023-09-07T05:39:20;17.60;93.20
19232;DHT22;9750;48.730;10.294;2023-09-07T05:41:49;17.60;93.20
19232;DHT22;9750;48.730;10.294;2023-09-07T05:44:18;17.60;93.30
19232;DHT22;9750;48.730;10.294;2023-09-07T05:46:45;17.60;93.20
19232;DHT22;9750;48.730;10.294;2023-09-07T05:49:13;17.70;93.20
19232;DHT22;9750;48.730;10.294;2023-09-07T05:51:40;17.70;93.20
19232;DHT22;9750;48.730;10.294;2023-09-07T05:54:08;17.70;93.20
19232;DHT22;9750;48.730;10.294;2023-09-07T05:56:35;17.70;93.20
19232;DHT22;9750;48.730;10.294;2023-09-07T05:59:02;17.70;93.20
19232;DHT22;9750;48.730;10.294;2023-09-07T06:01:31;17.70;93.40
19232;DHT22;9750;48.730;10.294;2023-09-07T06:03:58;17.70;93.40
19232;DHT22;9750;48.730;10.294;2023-09-07T06:06:26;17.70;93.40
19232;DHT22;9750;48.730;10.294;2023-09-07T06:08:53;17.80;93.40
19232;DHT22;9750;48.730;10.294;2023-09-07T06:11:20;17.80;93.40
19232;DHT22;9750;48.730;10.294;2023-09-07T06:13:47;17.80;93.30
19232;DHT22;9750;48.730;10.294;2023-09-07T06:16:15;17.90;93.20
19232;DHT22;9750;48.730;10.294;2023-09-07T06:18:43;17.90;93.30
19232;DHT22;9750;48.730;10.294;2023-09-07T06:21:12;17.90;93.10
19232;DHT22;9750;48.730;10.294;2023-09-07T06:23:39;17.90;93.10
19232;DHT22;9750;48.730;10.294;2023-09-07T06:26:13;18.00;93.20
19232;DHT22;9750;48.730;10.294;2023-09-07T06:38:40;18.10;92.90
19232;DHT22;9750;48.730;10.294;2023-09-07T06:44:28;18.10;92.90
19232;DHT22;9750;48.730;10.294;2023-09-07T06:46:56;18.20;92.80
19232;DHT22;9750;48.730;10.294;2023-09-07T06:49:23;18.20;92.80
19232;DHT22;9750;48.730;10.294;2023-09-07T06:55:00;18.30;92.70
19232;DHT22;9750;48.730;10.294;2023-09-07T06:57:27;18.30;92.90
19232;DHT22;9750;48.730;10.294;2023-09-07T07:00:28;18.30;92.80
19232;DHT22;9750;48.730;10.294;2023-09-07T07:21:08;18.60;92.80
19232;DHT22;9750;48.730;10.294;2023-09-07T07:23:35;18.70;92.80
19232;DHT22;9750;48.730;10.294;2023-09-07T07:26:03;18.70;92.40
19232;DHT22;9750;48.730;10.294;2023-09-07T07:28:30;18.70;92.70
19232;DHT22;9750;48.730;10.294;2023-09-07T07:30:58;18.70;92.50
19232;DHT22;9750;48.730;10.294;2023-09-07T07:33:25;18.80;92.60
19232;DHT22;9750;48.730;10.294;2023-09-07T07:35:58;18.80;92.50
19232;DHT22;9750;48.730;10.294;2023-09-07T07:38:26;18.80;92.50
19232;DHT22;9750;48.730;10.294;2023-09-07T07:40:54;18.80;92.50
19232;DHT22;9750;48.730;10.294;2023-09-07T07:43:21;18.90;92.30
19232;DHT22;9750;48.730;10.294;2023-09-07T07:45:49;18.90;92.50
19232;DHT22;9750;48.730;10.294;2023-09-07T07:48:16;18.90;92.50
19232;DHT22;9750;48.730;10.294;2023-09-07T07:50:43;19.00;92.40
19232;DHT22;9750;48.730;10.294;2023-09-07T07:53:10;19.00;92.70
19232;DHT22;9750;48.730;10.294;2023-09-07T07:55:39;19.00;92.80
19232;DHT22;9750;48.730;10.294;2023-09-07T07:58:07;19.10;92.50
19232;DHT22;9750;48.730;10.294;2023-09-07T08:00:35;19.10;92.70
19232;DHT22;9750;48.730;10.294;2023-09-07T08:03:03;19.20;92.80
19232;DHT22;9750;48.730;10.294;2023-09-07T08:05:31;19.20;92.60
19232;DHT22;9750;48.730;10.294;2023-09-07T08:07:59;19.30;92.60
19232;DHT22;9750;48.730;10.294;2023-09-07T08:10:26;19.30;92.80
19232;DHT22;9750;48.730;10.294;2023-09-07T08:16:17;19.40;92.70
19232;DHT22;9750;48.730;10.294;2023-09-07T08:18:44;19.40;92.90
19232;DHT22;9750;48.730;10.294;2023-09-07T08:21:14;19.40;93.00
19232;DHT22;9750;48.730;10.294;2023-09-07T08:23:42;19.50;92.80
19232;DHT22;9750;48.730;10.294;2023-09-07T08:26:09;19.60;93.30
19232;DHT22;9750;48.730;10.294;2023-09-07T08:28:36;19.60;92.60
19232;DHT22;9750;48.730;10.294;2023-09-07T08:31:04;19.60;92.90
19232;DHT22;9750;48.730;10.294;2023-09-07T08:33:32;19.60;92.80
19232;DHT22;9750;48.730;10.294;2023-09-07T08:36:06;19.70;93.10
19232;DHT22;9750;48.730;10.294;2023-09-07T08:38:34;19.70;92.90
19232;DHT22;9750;48.730;10.294;2023-09-07T08:41:02;19.80;92.80
19232;DHT22;9750;48.730;10.294;2023-09-07T08:43:33;19.80;93.10
19232;DHT22;9750;48.730;10.294;2023-09-07T08:46:08;19.90;92.90
19232;DHT22;9750;48.730;10.294;2023-09-07T08:48:39;20.00;93.20
19232;DHT22;9750;48.730;10.294;2023-09-07T08:51:08;20.00;93.00
19232;DHT22;9750;48.730;10.294;2023-09-07T08:53:37;20.10;93.00
19232;DHT22;9750;48.730;10.294;2023-09-07T08:56:07;20.10;92.40
19232;DHT22;9750;48.730;10.294;2023-09-07T08:58:36;20.10;92.50
19232;DHT22;9750;48.730;10.294;2023-09-07T09:01:03;20.20;92.90
19232;DHT22;9750;48.730;10.294;2023-09-07T09:03:31;20.20;92.30
19232;DHT22;9750;48.730;10.294;2023-09-07T09:06:02;20.20;92.60
19232;DHT22;9750;48.730;10.294;2023-09-07T09:08:29;20.30;92.70
19232;DHT22;9750;48.730;10.294;2023-09-07T09:11:01;20.30;92.90
19232;DHT22;9750;48.730;10.294;2023-09-07T09:13:30;20.40;92.60
19232;DHT22;9750;48.730;10.294;2023-09-07T09:15:59;20.40;92.70
19232;DHT22;9750;48.730;10.294;2023-09-07T09:18:27;20.50;93.20
19232;DHT22;9750;48.730;10.294;2023-09-07T09:20:54;20.50;92.70
19232;DHT22;9750;48.730;10.294;2023-09-07T09:23:23;20.60;92.60
19232;DHT22;9750;48.730;10.294;2023-09-07T09:25:51;20.60;92.80
19232;DHT22;9750;48.730;10.294;2023-09-07T09:28:18;20.70;92.30
19232;DHT22;9750;48.730;10.294;2023-09-07T09:30:45;20.70;92.80
19232;DHT22;9750;48.730;10.294;2023-09-07T09:33:13;20.70;93.00
19232;DHT22;9750;48.730;10.294;2023-09-07T09:35:42;20.80;93.30
19232;DHT22;9750;48.730;10.294;2023-09-07T09:38:13;20.90;92.90
19232;DHT22;9750;48.730;10.294;2023-09-07T09:40:42;20.90;93.00
19232;DHT22;9750;48.730;10.294;2023-09-07T09:43:10;21.00;93.10
19232;DHT22;9750;48.730;10.294;2023-09-07T09:45:38;21.00;92.30
19232;DHT22;9750;48.730;10.294;2023-09-07T09:48:06;21.10;92.30
19232;DHT22;9750;48.730;10.294;2023-09-07T09:50:33;21.10;92.80
19232;DHT22;9750;48.730;10.294;2023-09-07T09:53:05;21.20;92.30
19232;DHT22;9750;48.730;10.294;2023-09-07T09:55:34;21.20;92.80
19232;DHT22;9750;48.730;10.294;2023-09-07T09:58:03;21.30;92.40
19232;DHT22;9750;48.730;10.294;2023-09-07T10:00:31;21.30;93.30
19232;DHT22;9750;48.730;10.294;2023-09-07T10:03:09;21.40;93.40
19232;DHT22;9750;48.730;10.294;2023-09-07T10:05:38;21.50;92.60
19232;DHT22;9750;48.730;10.294;2023-09-07T10:08:09;21.50;92.90
19232;DHT22;9750;48.730;10.294;2023-09-07T10:10:40;21.60;92.50
19232;DHT22;9750;48.730;10.294;2023-09-07T10:13:12;21.60;92.90
19232;DHT22;9750;48.730;10.294;2023-09-07T10:15:40;21.70;92.50
19232;DHT22;9750;48.730;10.294;2023-09-07T10:18:12;21.70;92.10
19232;DHT22;9750;48.730;10.294;2023-09-07T10:20:55;21.70;91.80
19232;DHT22;9750;48.730;10.294;2023-09-07T10:23:35;21.80;92.20
19232;DHT22;9750;48.730;10.294;2023-09-07T10:26:03;21.80;91.70
19232;DHT22;9750;48.730;10.294;2023-09-07T10:28:32;21.90;92.30
19232;DHT22;9750;48.730;10.294;2023-09-07T10:31:05;21.90;92.40
19232;DHT22;9750;48.730;10.294;2023-09-07T10:33:36;21.90;91.20
19232;DHT22;9750;48.730;10.294;2023-09-07T10:36:05;22.00;92.20
19232;DHT22;9750;48.730;10.294;2023-09-07T10:38:32;22.00;91.90
19232;DHT22;9750;48.730;10.294;2023-09-07T10:41:01;22.10;92.10
19232;DHT22;9750;48.730;10.294;2023-09-07T10:43:32;22.20;92.30
19232;DHT22;9750;48.730;10.294;2023-09-07T10:46:00;22.20;92.00
19232;DHT22;9750;48.730;10.294;2023-09-07T10:48:30;22.30;91.70
19232;DHT22;9750;48.730;10.294;2023-09-07T10:50:57;22.30;91.90
19232;DHT22;9750;48.730;10.294;2023-09-07T10:53:25;22.40;92.40
19232;DHT22;9750;48.730;10.294;2023-09-07T10:55:54;22.50;91.40
19232;DHT22;9750;48.730;10.294;2023-09-07T10:58:27;22.50;91.60
19232;DHT22;9750;48.730;10.294;2023-09-07T11:01:01;22.50;90.80
19232;DHT22;9750;48.730;10.294;2023-09-07T11:03:29;22.60;91.10
19232;DHT22;9750;48.730;10.294;2023-09-07T11:05:59;22.60;90.50
19232;DHT22;9750;48.730;10.294;2023-09-07T11:08:29;22.60;90.80
19232;DHT22;9750;48.730;10.294;2023-09-07T11:10:57;22.70;89.60
19232;DHT22;9750;48.730;10.294;2023-09-07T11:13:24;22.70;89.10
19232;DHT22;9750;48.730;10.294;2023-09-07T11:15:56;22.70;90.50
19232;DHT22;9750;48.730;10.294;2023-09-07T11:18:24;22.70;91.00
19232;DHT22;9750;48.730;10.294;2023-09-07T11:20:52;22.80;90.60
19232;DHT22;9750;48.730;10.294;2023-09-07T11:23:20;22.80;89.00
19232;DHT22;9750;48.730;10.294;2023-09-07T11:25:49;22.80;90.30
19232;DHT22;9750;48.730;10.294;2023-09-07T11:28:17;22.90;90.50
19232;DHT22;9750;48.730;10.294;2023-09-07T11:30:51;22.90;89.80
19232;DHT22;9750;48.730;10.294;2023-09-07T11:33:22;23.00;88.20
19232;DHT22;9750;48.730;10.294;2023-09-07T11:35:50;23.00;89.70
19232;DHT22;9750;48.730;10.294;2023-09-07T11:38:17;23.00;88.30
19232;DHT22;9750;48.730;10.294;2023-09-07T11:40:45;23.10;90.30
19232;DHT22;9750;48.730;10.294;2023-09-07T11:43:15;23.10;89.50
19232;DHT22;9750;48.730;10.294;2023-09-07T11:45:44;23.10;88.50
19232;DHT22;9750;48.730;10.294;2023-09-07T11:48:11;23.20;88.20
19232;DHT22;9750;48.730;10.294;2023-09-07T11:50:40;23.20;87.40
19232;DHT22;9750;48.730;10.294;2023-09-07T11:53:08;23.20;89.30
19232;DHT22;9750;48.730;10.294;2023-09-07T11:55:35;23.30;88.00
19232;DHT22;9750;48.730;10.294;2023-09-07T11:58:03;23.30;88.70
19232;DHT22;9750;48.730;10.294;2023-09-07T12:00:31;23.40;89.10
19232;DHT22;9750;48.730;10.294;2023-09-07T12:02:59;23.40;88.40
19232;DHT22;9750;48.730;10.294;2023-09-07T12:05:27;23.40;88.50
19232;DHT22;9750;48.730;10.294;2023-09-07T12:07:55;23.50;87.20
19232;DHT22;9750;48.730;10.294;2023-09-07T12:10:23;23.50;88.70
19232;DHT22;9750;48.730;10.294;2023-09-07T12:12:50;23.60;89.20
19232;DHT22;9750;48.730;10.294;2023-09-07T12:15:18;23.60;88.40
19232;DHT22;9750;48.730;10.294;2023-09-07T12:17:45;23.60;88.30
19232;DHT22;9750;48.730;10.294;2023-09-07T12:20:14;23.70;89.50
19232;DHT22;9750;48.730;10.294;2023-09-07T12:22:42;23.70;87.80
19232;DHT22;9750;48.730;10.294;2023-09-07T12:25:11;23.70;87.30
19232;DHT22;9750;48.730;10.294;2023-09-07T12:27:38;23.70;86.20
19232;DHT22;9750;48.730;10.294;2023-09-07T12:30:06;23.80;87.30
19232;DHT22;9750;48.730;10.294;2023-09-07T12:32:38;23.80;87.70
19232;DHT22;9750;48.730;10.294;2023-09-07T12:35:06;23.80;86.70
19232;DHT22;9750;48.730;10.294;2023-09-07T12:37:34;23.90;85.60
19232;DHT22;9750;48.730;10.294;2023-09-07T12:40:02;23.90;86.30
19232;DHT22;9750;48.730;10.294;2023-09-07T12:42:39;23.90;86.60
19232;DHT22;9750;48.730;10.294;2023-09-07T12:45:07;23.90;86.80
19232;DHT22;9750;48.730;10.294;2023-09-07T12:47:35;24.00;85.40
19232;DHT22;9750;48.730;10.294;2023-09-07T12:50:03;24.00;86.50
19232;DHT22;9750;48.730;10.294;2023-09-07T12:52:30;24.00;87.00
19232;DHT22;9750;48.730;10.294;2023-09-07T12:54:58;24.10;86.70
19232;DHT22;9750;48.730;10.294;2023-09-07T12:57:25;24.10;85.80
19232;DHT22;9750;48.730;10.294;2023-09-07T12:59:54;24.10;85.70
19232;DHT22;9750;48.730;10.294;2023-09-07T13:05:43;24.20;84.70
19232;DHT22;9750;48.730;10.294;2023-09-07T13:08:10;24.20;83.70
19232;DHT22;9750;48.730;10.294;2023-09-07T13:10:38;24.30;84.90
19232;DHT22;9750;48.730;10.294;2023-09-07T13:13:05;24.30;84.80
19232;DHT22;9750;48.730;10.294;2023-09-07T13:15:34;24.30;84.50
19232;DHT22;9750;48.730;10.294;2023-09-07T13:18:02;24.40;82.90
19232;DHT22;9750;48.730;10.294;2023-09-07T13:20:29;24.40;84.30
19232;DHT22;9750;48.730;10.294;2023-09-07T13:22:56;24.50;83.80
19232;DHT22;9750;48.730;10.294;2023-09-07T13:25:24;24.50;81.70
19232;DHT22;9750;48.730;10.294;2023-09-07T13:27:51;24.50;82.80
19232;DHT22;9750;48.730;10.294;2023-09-07T13:30:19;24.60;81.60
19232;DHT22;9750;48.730;10.294;2023-09-07T13:33:09;24.60;81.90
19232;DHT22;9750;48.730;10.294;2023-09-07T13:35:36;24.60;83.40
19232;DHT22;9750;48.730;10.294;2023-09-07T13:38:05;24.70;83.20
19232;DHT22;9750;48.730;10.294;2023-09-07T13:40:32;24.70;83.80
19232;DHT22;9750;48.730;10.294;2023-09-07T13:42:59;24.70;83.00
19232;DHT22;9750;48.730;10.294;2023-09-07T13:45:27;24.80;82.70
19232;DHT22;9750;48.730;10.294;2023-09-07T13:47:55;24.80;83.30
19232;DHT22;9750;48.730;10.294;2023-09-07T13:50:24;24.90;84.90
19232;DHT22;9750;48.730;10.294;2023-09-07T13:52:51;24.90;84.20
19232;DHT22;9750;48.730;10.294;2023-09-07T13:55:18;25.00;83.80
19232;DHT22;9750;48.730;10.294;2023-09-07T13:57:45;25.00;85.00
19232;DHT22;9750;48.730;10.294;2023-09-07T14:00:13;25.00;80.80
19232;DHT22;9750;48.730;10.294;2023-09-07T14:02:41;25.10;83.20
19232;DHT22;9750;48.730;10.294;2023-09-07T14:05:08;25.10;81.40
19232;DHT22;9750;48.730;10.294;2023-09-07T14:07:38;25.10;81.70
19232;DHT22;9750;48.730;10.294;2023-09-07T14:10:06;25.10;80.30
19232;DHT22;9750;48.730;10.294;2023-09-07T14:12:33;25.20;81.80
19232;DHT22;9750;48.730;10.294;2023-09-07T14:15:00;25.20;77.60
19232;DHT22;9750;48.730;10.294;2023-09-07T14:17:28;25.20;80.60
19232;DHT22;9750;48.730;10.294;2023-09-07T14:19:55;25.30;78.20
19232;DHT22;9750;48.730;10.294;2023-09-07T14:22:22;25.30;79.10
19232;DHT22;9750;48.730;10.294;2023-09-07T14:24:51;25.40;80.10
19232;DHT22;9750;48.730;10.294;2023-09-07T14:27:18;25.40;79.60
19232;DHT22;9750;48.730;10.294;2023-09-07T14:29:45;25.50;77.70
19232;DHT22;9750;48.730;10.294;2023-09-07T14:32:16;25.50;78.60
19232;DHT22;9750;48.730;10.294;2023-09-07T14:34:43;25.50;77.90
19232;DHT22;9750;48.730;10.294;2023-09-07T14:37:11;25.60;79.70
19232;DHT22;9750;48.730;10.294;2023-09-07T14:39:38;25.60;75.80
19232;DHT22;9750;48.730;10.294;2023-09-07T14:42:12;25.60;77.10
19232;DHT22;9750;48.730;10.294;2023-09-07T14:44:42;25.60;79.50
19232;DHT22;9750;48.730;10.294;2023-09-07T14:47:09;25.70;77.60
19232;DHT22;9750;48.730;10.294;2023-09-07T14:49:37;25.70;75.40
19232;DHT22;9750;48.730;10.294;2023-09-07T14:52:26;25.70;76.30
19232;DHT22;9750;48.730;10.294;2023-09-07T14:54:53;25.80;76.00
19232;DHT22;9750;48.730;10.294;2023-09-07T14:57:22;25.80;76.30
19232;DHT22;9750;48.730;10.294;2023-09-07T14:59:49;25.90;77.20
19232;DHT22;9750;48.730;10.294;2023-09-07T15:02:16;25.90;76.80
19232;DHT22;9750;48.730;10.294;2023-09-07T15:04:44;25.90;75.60
19232;DHT22;9750;48.730;10.294;2023-09-07T15:07:11;25.90;76.80
19232;DHT22;9750;48.730;10.294;2023-09-07T15:09:38;26.00;75.50
19232;DHT22;9750;48.730;10.294;2023-09-07T15:12:06;26.00;73.70
19232;DHT22;9750;48.730;10.294;2023-09-07T15:14:35;26.00;75.30
19232;DHT22;9750;48.730;10.294;2023-09-07T15:17:02;26.00;73.50
19232;DHT22;9750;48.730;10.294;2023-09-07T15:19:29;26.00;74.50
19232;DHT22;9750;48.730;10.294;2023-09-07T15:21:59;26.00;74.10
19232;DHT22;9750;48.730;10.294;2023-09-07T15:24:27;26.10;75.50
19232;DHT22;9750;48.730;10.294;2023-09-07T15:26:55;26.10;75.80
19232;DHT22;9750;48.730;10.294;2023-09-07T15:29:22;26.10;76.60
19232;DHT22;9750;48.730;10.294;2023-09-07T15:31:51;26.10;74.90
19232;DHT22;9750;48.730;10.294;2023-09-07T15:34:19;26.10;74.70
19232;DHT22;9750;48.730;10.294;2023-09-07T15:36:47;26.10;75.10
19232;DHT22;9750;48.730;10.294;2023-09-07T15:39:14;26.20;73.50
19232;DHT22;9750;48.730;10.294;2023-09-07T15:41:41;26.10;73.80
19232;DHT22;9750;48.730;10.294;2023-09-07T15:44:08;26.20;74.60
19232;DHT22;9750;48.730;10.294;2023-09-07T15:46:36;26.10;75.00
19232;DHT22;9750;48.730;10.294;2023-09-07T15:49:06;26.20;74.00
19232;DHT22;9750;48.730;10.294;2023-09-07T15:51:34;26.20;73.90
19232;DHT22;9750;48.730;10.294;2023-09-07T15:54:02;26.20;73.80
19232;DHT22;9750;48.730;10.294;2023-09-07T15:56:30;26.10;74.20
19232;DHT22;9750;48.730;10.294;2023-09-07T15:58:57;26.20;73.20
19232;DHT22;9750;48.730;10.294;2023-09-07T16:01:24;26.10;71.50
19232;DHT22;9750;48.730;10.294;2023-09-07T16:03:52;26.10;72.70
19232;DHT22;9750;48.730;10.294;2023-09-07T16:06:20;26.10;73.40
19232;DHT22;9750;48.730;10.294;2023-09-07T16:08:48;26.10;72.70
19232;DHT22;9750;48.730;10.294;2023-09-07T16:11:15;26.10;72.50
19232;DHT22;9750;48.730;10.294;2023-09-07T16:13:43;26.10;71.60
19232;DHT22;9750;48.730;10.294;2023-09-07T16:16:10;26.00;71.00
19232;DHT22;9750;48.730;10.294;2023-09-07T16:18:37;25.90;71.50
19232;DHT22;9750;48.730;10.294;2023-09-07T16:21:04;25.80;71.80
19232;DHT22;9750;48.730;10.294;2023-09-07T16:23:36;25.80;72.80
19232;DHT22;9750;48.730;10.294;2023-09-07T16:26:03;25.70;72.20
19232;DHT22;9750;48.730;10.294;2023-09-07T16:28:30;25.70;73.90
19232;DHT22;9750;48.730;10.294;2023-09-07T16:30:58;25.60;73.50
19232;DHT22;9750;48.730;10.294;2023-09-07T16:33:25;25.50;72.70